sensor_id;sensor_type;location;lat;lon;timestamp;P1;durP1;ratioP1;P2;durP2;ratioP2
76131;SDS011;64877;50.994;13.650;2024-02-14T00:01:13;5.13;;;2.58;;
76131;SDS011;64877;50.994;13.650;2024-02-14T00:03:39;6.05;;;2.97;;
76131;SDS011;64877;50.994;13.650;2024-02-14T00:06:04;8.25;;;2.90;;
76131;SDS011;64877;50.994;13.650;2024-02-14T00:08:30;8.48;;;2.85;;
76131;SDS011;64877;50.994;13.650;2024-02-14T00:10:56;8.68;;;3.20;;
76131;SDS011;64877;50.994;13.650;2024-02-14T00:13:22;6.88;;;2.88;;
76131;SDS011;64877;50.994;13.650;2024-02-14T00:15:47;5.55;;;2.65;;
76131;SDS011;64877;50.994;13.650;2024-02-14T00:18:13;6.68;;;3.10;;
76131;SDS011;64877;50.994;13.650;2024-02-14T00:20:40;6.47;;;3.20;;
76131;SDS011;64877;50.994;13.650;2024-02-14T00:23:05;7.75;;;2.53;;
76131;SDS011;64877;50.994;13.650;2024-02-14T00:25:31;6.82;;;2.70;;
76131;SDS011;64877;50.994;13.650;2024-02-14T00:27:56;7.50;;;2.90;;
76131;SDS011;64877;50.994;13.650;2024-02-14T00:30:25;6.20;;;2.92;;
76131;SDS011;64877;50.994;13.650;2024-02-14T00:32:51;6.40;;;2.58;;
76131;SDS011;64877;50.994;13.650;2024-02-14T00:35:17;5.32;;;2.63;;
76131;SDS011;64877;50.994;13.650;2024-02-14T00:37:42;3.92;;;2.35;;
76131;SDS011;64877;50.994;13.650;2024-02-14T00:40:08;3.40;;;1.73;;
76131;SDS011;64877;50.994;13.650;2024-02-14T00:42:34;5.63;;;2.25;;
76131;SDS011;64877;50.994;13.650;2024-02-14T00:44:59;6.35;;;2.05;;
76131;SDS011;64877;50.994;13.650;2024-02-14T00:47:25;4.65;;;2.25;;
76131;SDS011;64877;50.994;13.650;2024-02-14T00:49:50;6.80;;;2.72;;
76131;SDS011;64877;50.994;13.650;2024-02-14T00:52:16;6.22;;;2.70;;
76131;SDS011;64877;50.994;13.650;2024-02-14T00:54:42;6.45;;;2.15;;
76131;SDS011;64877;50.994;13.650;2024-02-14T00:57:09;8.10;;;2.63;;
76131;SDS011;64877;50.994;13.650;2024-02-14T00:59:34;6.15;;;2.58;;
76131;SDS011;64877;50.994;13.650;2024-02-14T01:02:00;8.35;;;2.60;;
76131;SDS011;64877;50.994;13.650;2024-02-14T01:04:25;4.93;;;1.70;;
76131;SDS011;64877;50.994;13.650;2024-02-14T01:06:50;7.30;;;2.25;;
76131;SDS011;64877;50.994;13.650;2024-02-14T01:09:17;6.40;;;2.28;;
76131;SDS011;64877;50.994;13.650;2024-02-14T01:11:43;4.50;;;1.88;;
76131;SDS011;64877;50.994;13.650;2024-02-14T01:14:09;3.97;;;1.80;;
76131;SDS011;64877;50.994;13.650;2024-02-14T01:16:41;4.97;;;2.20;;
76131;SDS011;64877;50.994;13.650;2024-02-14T01:19:08;6.22;;;2.30;;
76131;SDS011;64877;50.994;13.650;2024-02-14T01:21:33;5.13;;;2.50;;
76131;SDS011;64877;50.994;13.650;2024-02-14T01:23:58;5.43;;;2.03;;
76131;SDS011;64877;50.994;13.650;2024-02-14T01:26:24;6.38;;;1.95;;
76131;SDS011;64877;50.994;13.650;2024-02-14T01:28:49;7.13;;;2.38;;
76131;SDS011;64877;50.994;13.650;2024-02-14T01:31:14;4.88;;;2.30;;
76131;SDS011;64877;50.994;13.650;2024-02-14T01:33:40;3.85;;;2.20;;
76131;SDS011;64877;50.994;13.650;2024-02-14T01:36:05;5.50;;;2.47;;
76131;SDS011;64877;50.994;13.650;2024-02-14T01:38:31;10.02;;;2.53;;
76131;SDS011;64877;50.994;13.650;2024-02-14T01:41:00;5.05;;;1.75;;
76131;SDS011;64877;50.994;13.650;2024-02-14T01:43:27;3.67;;;1.92;;
76131;SDS011;64877;50.994;13.650;2024-02-14T01:45:53;4.53;;;2.28;;
76131;SDS011;64877;50.994;13.650;2024-02-14T01:48:18;4.72;;;2.10;;
76131;SDS011;64877;50.994;13.650;2024-02-14T01:50:45;5.95;;;2.30;;
76131;SDS011;64877;50.994;13.650;2024-02-14T01:53:11;5.18;;;2.67;;
76131;SDS011;64877;50.994;13.650;2024-02-14T01:55:38;4.28;;;2.20;;
76131;SDS011;64877;50.994;13.650;2024-02-14T01:58:03;3.90;;;2.03;;
76131;SDS011;64877;50.994;13.650;2024-02-14T02:00:30;3.78;;;1.58;;
76131;SDS011;64877;50.994;13.650;2024-02-14T02:02:58;6.45;;;2.00;;
76131;SDS011;64877;50.994;13.650;2024-02-14T02:05:24;5.88;;;2.58;;
76131;SDS011;64877;50.994;13.650;2024-02-14T02:07:49;3.60;;;2.00;;
76131;SDS011;64877;50.994;13.650;2024-02-14T02:10:15;6.65;;;1.75;;
76131;SDS011;64877;50.994;13.650;2024-02-14T02:12:41;4.43;;;1.63;;
76131;SDS011;64877;50.994;13.650;2024-02-14T02:15:07;3.75;;;1.85;;
76131;SDS011;64877;50.994;13.650;2024-02-14T02:17:36;4.75;;;1.60;;
76131;SDS011;64877;50.994;13.650;2024-02-14T02:20:01;4.00;;;1.65;;
76131;SDS011;64877;50.994;13.650;2024-02-14T02:22:27;2.92;;;1.80;;
76131;SDS011;64877;50.994;13.650;2024-02-14T02:24:57;5.80;;;1.90;;
76131;SDS011;64877;50.994;13.650;2024-02-14T02:27:22;6.95;;;1.73;;
76131;SDS011;64877;50.994;13.650;2024-02-14T02:29:48;6.55;;;2.00;;
76131;SDS011;64877;50.994;13.650;2024-02-14T02:32:13;5.80;;;1.45;;
76131;SDS011;64877;50.994;13.650;2024-02-14T02:34:40;2.63;;;1.25;;
76131;SDS011;64877;50.994;13.650;2024-02-14T02:37:05;8.32;;;1.52;;
76131;SDS011;64877;50.994;13.650;2024-02-14T02:39:34;3.78;;;1.65;;
76131;SDS011;64877;50.994;13.650;2024-02-14T02:42:01;4.07;;;1.27;;
76131;SDS011;64877;50.994;13.650;2024-02-14T02:44:27;6.30;;;1.88;;
76131;SDS011;64877;50.994;13.650;2024-02-14T02:46:52;3.03;;;1.10;;
76131;SDS011;64877;50.994;13.650;2024-02-14T02:49:18;4.32;;;1.33;;
76131;SDS011;64877;50.994;13.650;2024-02-14T02:51:43;3.53;;;1.65;;
76131;SDS011;64877;50.994;13.650;2024-02-14T02:54:09;4.82;;;1.65;;
76131;SDS011;64877;50.994;13.650;2024-02-14T02:56:36;3.92;;;1.67;;
76131;SDS011;64877;50.994;13.650;2024-02-14T02:59:02;3.25;;;1.50;;
76131;SDS011;64877;50.994;13.650;2024-02-14T03:01:28;3.45;;;1.80;;
76131;SDS011;64877;50.994;13.650;2024-02-14T03:04:00;5.78;;;2.17;;
76131;SDS011;64877;50.994;13.650;2024-02-14T03:06:26;7.88;;;2.83;;
76131;SDS011;64877;50.994;13.650;2024-02-14T03:08:51;4.97;;;1.80;;
76131;SDS011;64877;50.994;13.650;2024-02-14T03:11:18;5.43;;;1.70;;
76131;SDS011;64877;50.994;13.650;2024-02-14T03:13:44;5.15;;;1.83;;
76131;SDS011;64877;50.994;13.650;2024-02-14T03:16:09;4.45;;;1.70;;
76131;SDS011;64877;50.994;13.650;2024-02-14T03:18:36;4.88;;;1.75;;
76131;SDS011;64877;50.994;13.650;2024-02-14T03:21:03;3.50;;;1.50;;
76131;SDS011;64877;50.994;13.650;2024-02-14T03:23:31;5.50;;;1.45;;
76131;SDS011;64877;50.994;13.650;2024-02-14T03:25:56;4.82;;;1.80;;
76131;SDS011;64877;50.994;13.650;2024-02-14T03:28:22;5.82;;;2.72;;
76131;SDS011;64877;50.994;13.650;2024-02-14T03:30:48;5.70;;;1.38;;
76131;SDS011;64877;50.994;13.650;2024-02-14T03:33:14;3.78;;;1.92;;
76131;SDS011;64877;50.994;13.650;2024-02-14T03:35:40;3.03;;;1.35;;
76131;SDS011;64877;50.994;13.650;2024-02-14T03:38:06;5.05;;;1.70;;
76131;SDS011;64877;50.994;13.650;2024-02-14T03:40:34;3.70;;;1.83;;
76131;SDS011;64877;50.994;13.650;2024-02-14T03:43:01;4.40;;;1.60;;
76131;SDS011;64877;50.994;13.650;2024-02-14T03:45:27;9.32;;;1.70;;
76131;SDS011;64877;50.994;13.650;2024-02-14T03:47:55;3.85;;;1.63;;
76131;SDS011;64877;50.994;13.650;2024-02-14T03:50:21;5.13;;;1.50;;
76131;SDS011;64877;50.994;13.650;2024-02-14T03:52:47;6.18;;;2.25;;
76131;SDS011;64877;50.994;13.650;2024-02-14T03:55:13;4.82;;;1.30;;
76131;SDS011;64877;50.994;13.650;2024-02-14T03:57:39;3.75;;;1.48;;
76131;SDS011;64877;50.994;13.650;2024-02-14T04:00:05;5.93;;;1.63;;
76131;SDS011;64877;50.994;13.650;2024-02-14T04:02:39;5.38;;;1.98;;
76131;SDS011;64877;50.994;13.650;2024-02-14T04:05:05;4.13;;;1.48;;
76131;SDS011;64877;50.994;13.650;2024-02-14T04:07:32;3.97;;;1.48;;
76131;SDS011;64877;50.994;13.650;2024-02-14T04:09:59;4.00;;;1.38;;
76131;SDS011;64877;50.994;13.650;2024-02-14T04:12:25;4.18;;;1.52;;
76131;SDS011;64877;50.994;13.650;2024-02-14T04:14:50;4.15;;;1.13;;
76131;SDS011;64877;50.994;13.650;2024-02-14T04:17:15;4.15;;;1.40;;
76131;SDS011;64877;50.994;13.650;2024-02-14T04:19:41;4.47;;;1.33;;
76131;SDS011;64877;50.994;13.650;2024-02-14T04:22:06;5.68;;;1.40;;
76131;SDS011;64877;50.994;13.650;2024-02-14T04:24:33;4.30;;;1.80;;
76131;SDS011;64877;50.994;13.650;2024-02-14T04:26:59;4.47;;;1.38;;
76131;SDS011;64877;50.994;13.650;2024-02-14T04:29:26;3.58;;;1.40;;
76131;SDS011;64877;50.994;13.650;2024-02-14T04:31:53;3.60;;;1.30;;
76131;SDS011;64877;50.994;13.650;2024-02-14T04:34:18;3.65;;;1.50;;
76131;SDS011;64877;50.994;13.650;2024-02-14T04:36:44;4.18;;;1.27;;
76131;SDS011;64877;50.994;13.650;2024-02-14T04:39:10;3.75;;;1.60;;
76131;SDS011;64877;50.994;13.650;2024-02-14T04:41:35;2.33;;;1.10;;
76131;SDS011;64877;50.994;13.650;2024-02-14T04:44:05;4.00;;;1.25;;
76131;SDS011;64877;50.994;13.650;2024-02-14T04:46:34;5.30;;;1.30;;
76131;SDS011;64877;50.994;13.650;2024-02-14T04:49:01;3.70;;;1.20;;
76131;SDS011;64877;50.994;13.650;2024-02-14T04:51:30;4.85;;;1.30;;
76131;SDS011;64877;50.994;13.650;2024-02-14T04:53:56;6.88;;;1.10;;
76131;SDS011;64877;50.994;13.650;2024-02-14T04:56:25;2.88;;;1.05;;
76131;SDS011;64877;50.994;13.650;2024-02-14T04:58:55;4.43;;;1.05;;
76131;SDS011;64877;50.994;13.650;2024-02-14T05:01:20;7.95;;;1.85;;
76131;SDS011;64877;50.994;13.650;2024-02-14T05:03:46;3.67;;;1.17;;
76131;SDS011;64877;50.994;13.650;2024-02-14T05:06:11;1.77;;;0.90;;
76131;SDS011;64877;50.994;13.650;2024-02-14T05:08:36;3.33;;;1.13;;
76131;SDS011;64877;50.994;13.650;2024-02-14T05:11:02;5.03;;;0.98;;
76131;SDS011;64877;50.994;13.650;2024-02-14T05:13:29;5.35;;;1.27;;
76131;SDS011;64877;50.994;13.650;2024-02-14T05:15:54;3.13;;;1.05;;
76131;SDS011;64877;50.994;13.650;2024-02-14T05:18:20;3.47;;;1.25;;
76131;SDS011;64877;50.994;13.650;2024-02-14T05:20:45;5.93;;;1.50;;
76131;SDS011;64877;50.994;13.650;2024-02-14T05:23:11;3.42;;;1.23;;
76131;SDS011;64877;50.994;13.650;2024-02-14T05:25:36;3.53;;;1.35;;
76131;SDS011;64877;50.994;13.650;2024-02-14T05:28:02;2.28;;;1.00;;
76131;SDS011;64877;50.994;13.650;2024-02-14T05:30:27;2.45;;;0.82;;
76131;SDS011;64877;50.994;13.650;2024-02-14T05:32:53;2.95;;;0.95;;
76131;SDS011;64877;50.994;13.650;2024-02-14T05:35:19;2.80;;;1.10;;
76131;SDS011;64877;50.994;13.650;2024-02-14T05:37:45;2.60;;;0.80;;
76131;SDS011;64877;50.994;13.650;2024-02-14T05:40:14;4.15;;;1.20;;
76131;SDS011;64877;50.994;13.650;2024-02-14T05:42:40;4.68;;;1.40;;
76131;SDS011;64877;50.994;13.650;2024-02-14T05:45:05;4.50;;;1.23;;
76131;SDS011;64877;50.994;13.650;2024-02-14T05:47:31;4.60;;;1.10;;
76131;SDS011;64877;50.994;13.650;2024-02-14T05:49:57;3.22;;;1.25;;
76131;SDS011;64877;50.994;13.650;2024-02-14T05:52:22;2.15;;;1.00;;
76131;SDS011;64877;50.994;13.650;2024-02-14T05:54:47;3.45;;;1.42;;
76131;SDS011;64877;50.994;13.650;2024-02-14T05:57:13;4.75;;;1.15;;
76131;SDS011;64877;50.994;13.650;2024-02-14T05:59:39;4.75;;;1.17;;
76131;SDS011;64877;50.994;13.650;2024-02-14T06:02:04;3.55;;;0.90;;
76131;SDS011;64877;50.994;13.650;2024-02-14T06:04:31;4.72;;;1.17;;
76131;SDS011;64877;50.994;13.650;2024-02-14T06:06:56;4.13;;;1.15;;
76131;SDS011;64877;50.994;13.650;2024-02-14T06:09:22;3.63;;;0.98;;
76131;SDS011;64877;50.994;13.650;2024-02-14T06:11:47;2.72;;;0.88;;
76131;SDS011;64877;50.994;13.650;2024-02-14T06:14:12;3.20;;;0.90;;
76131;SDS011;64877;50.994;13.650;2024-02-14T06:16:38;6.40;;;1.23;;
76131;SDS011;64877;50.994;13.650;2024-02-14T06:19:03;5.20;;;1.50;;
76131;SDS011;64877;50.994;13.650;2024-02-14T06:21:30;2.55;;;0.98;;
76131;SDS011;64877;50.994;13.650;2024-02-14T06:23:55;3.20;;;1.05;;
76131;SDS011;64877;50.994;13.650;2024-02-14T06:26:21;3.10;;;1.20;;
76131;SDS011;64877;50.994;13.650;2024-02-14T06:28:46;5.88;;;1.70;;
76131;SDS011;64877;50.994;13.650;2024-02-14T06:31:12;7.35;;;1.85;;
76131;SDS011;64877;50.994;13.650;2024-02-14T06:33:37;6.88;;;2.15;;
76131;SDS011;64877;50.994;13.650;2024-02-14T06:36:03;3.85;;;1.80;;
76131;SDS011;64877;50.994;13.650;2024-02-14T06:38:28;9.00;;;1.70;;
76131;SDS011;64877;50.994;13.650;2024-02-14T06:40:56;5.90;;;2.40;;
76131;SDS011;64877;50.994;13.650;2024-02-14T06:43:21;4.80;;;2.50;;
76131;SDS011;64877;50.994;13.650;2024-02-14T06:45:47;6.90;;;2.15;;
76131;SDS011;64877;50.994;13.650;2024-02-14T06:48:12;4.82;;;1.63;;
76131;SDS011;64877;50.994;13.650;2024-02-14T06:50:38;5.47;;;1.80;;
76131;SDS011;64877;50.994;13.650;2024-02-14T06:53:03;3.78;;;1.80;;
76131;SDS011;64877;50.994;13.650;2024-02-14T06:55:29;4.30;;;1.75;;
76131;SDS011;64877;50.994;13.650;2024-02-14T06:57:57;3.42;;;1.40;;
76131;SDS011;64877;50.994;13.650;2024-02-14T07:00:23;5.20;;;1.88;;
76131;SDS011;64877;50.994;13.650;2024-02-14T07:02:49;3.38;;;1.67;;
76131;SDS011;64877;50.994;13.650;2024-02-14T07:05:14;4.82;;;1.65;;
76131;SDS011;64877;50.994;13.650;2024-02-14T07:07:40;4.97;;;1.60;;
76131;SDS011;64877;50.994;13.650;2024-02-14T07:10:06;3.40;;;1.50;;
76131;SDS011;64877;50.994;13.650;2024-02-14T07:12:33;4.70;;;1.25;;
76131;SDS011;64877;50.994;13.650;2024-02-14T07:14:58;4.10;;;1.17;;
76131;SDS011;64877;50.994;13.650;2024-02-14T07:17:23;3.50;;;0.98;;
76131;SDS011;64877;50.994;13.650;2024-02-14T07:19:49;3.08;;;1.30;;
76131;SDS011;64877;50.994;13.650;2024-02-14T07:22:15;2.58;;;1.23;;
76131;SDS011;64877;50.994;13.650;2024-02-14T07:24:43;4.03;;;1.40;;
76131;SDS011;64877;50.994;13.650;2024-02-14T07:27:08;2.28;;;1.00;;
76131;SDS011;64877;50.994;13.650;2024-02-14T07:29:34;3.55;;;1.33;;
76131;SDS011;64877;50.994;13.650;2024-02-14T07:32:01;3.63;;;1.50;;
76131;SDS011;64877;50.994;13.650;2024-02-14T07:34:27;5.47;;;1.42;;
76131;SDS011;64877;50.994;13.650;2024-02-14T07:36:52;6.40;;;1.52;;
76131;SDS011;64877;50.994;13.650;2024-02-14T07:39:18;4.22;;;1.90;;
76131;SDS011;64877;50.994;13.650;2024-02-14T07:41:43;3.88;;;1.30;;
76131;SDS011;64877;50.994;13.650;2024-02-14T07:44:09;5.45;;;1.77;;
76131;SDS011;64877;50.994;13.650;2024-02-14T07:46:34;6.93;;;1.50;;
76131;SDS011;64877;50.994;13.650;2024-02-14T07:49:00;4.82;;;1.50;;
76131;SDS011;64877;50.994;13.650;2024-02-14T07:51:25;9.18;;;1.73;;
76131;SDS011;64877;50.994;13.650;2024-02-14T07:53:53;2.83;;;1.42;;
76131;SDS011;64877;50.994;13.650;2024-02-14T07:56:18;3.42;;;1.08;;
76131;SDS011;64877;50.994;13.650;2024-02-14T07:58:43;3.10;;;0.82;;
76131;SDS011;64877;50.994;13.650;2024-02-14T08:01:09;1.90;;;0.70;;
76131;SDS011;64877;50.994;13.650;2024-02-14T08:03:34;1.63;;;0.60;;
76131;SDS011;64877;50.994;13.650;2024-02-14T08:06:00;3.47;;;0.80;;
76131;SDS011;64877;50.994;13.650;2024-02-14T08:08:25;3.83;;;0.73;;
76131;SDS011;64877;50.994;13.650;2024-02-14T08:10:52;2.38;;;0.77;;
76131;SDS011;64877;50.994;13.650;2024-02-14T08:13:17;4.50;;;0.98;;
76131;SDS011;64877;50.994;13.650;2024-02-14T08:15:44;4.43;;;0.60;;
76131;SDS011;64877;50.994;13.650;2024-02-14T08:18:09;3.25;;;0.98;;
76131;SDS011;64877;50.994;13.650;2024-02-14T08:20:35;4.93;;;0.80;;
76131;SDS011;64877;50.994;13.650;2024-02-14T08:23:00;5.10;;;0.93;;
76131;SDS011;64877;50.994;13.650;2024-02-14T08:25:26;1.80;;;0.70;;
76131;SDS011;64877;50.994;13.650;2024-02-14T08:27:52;2.97;;;0.90;;
76131;SDS011;64877;50.994;13.650;2024-02-14T08:30:17;1.73;;;0.70;;
76131;SDS011;64877;50.994;13.650;2024-02-14T08:32:44;3.55;;;0.70;;
76131;SDS011;64877;50.994;13.650;2024-02-14T08:35:10;2.85;;;0.77;;
76131;SDS011;64877;50.994;13.650;2024-02-14T08:37:36;2.97;;;0.68;;
76131;SDS011;64877;50.994;13.650;2024-02-14T08:40:03;3.00;;;0.93;;
76131;SDS011;64877;50.994;13.650;2024-02-14T08:42:31;4.13;;;0.95;;
76131;SDS011;64877;50.994;13.650;2024-02-14T08:44:58;2.78;;;0.57;;
76131;SDS011;64877;50.994;13.650;2024-02-14T08:47:23;3.80;;;1.10;;
76131;SDS011;64877;50.994;13.650;2024-02-14T08:49:49;2.90;;;0.80;;
76131;SDS011;64877;50.994;13.650;2024-02-14T08:52:14;3.85;;;0.80;;
76131;SDS011;64877;50.994;13.650;2024-02-14T08:54:39;2.00;;;0.70;;
76131;SDS011;64877;50.994;13.650;2024-02-14T08:57:05;2.55;;;0.80;;
76131;SDS011;64877;50.994;13.650;2024-02-14T08:59:30;3.08;;;1.05;;
76131;SDS011;64877;50.994;13.650;2024-02-14T09:01:56;3.50;;;1.10;;
76131;SDS011;64877;50.994;13.650;2024-02-14T09:04:22;3.20;;;1.10;;
76131;SDS011;64877;50.994;13.650;2024-02-14T09:06:47;3.30;;;0.90;;
76131;SDS011;64877;50.994;13.650;2024-02-14T09:09:12;4.60;;;1.00;;
76131;SDS011;64877;50.994;13.650;2024-02-14T09:11:39;2.13;;;0.75;;
76131;SDS011;64877;50.994;13.650;2024-02-14T09:14:06;2.35;;;0.90;;
76131;SDS011;64877;50.994;13.650;2024-02-14T09:16:32;3.97;;;1.23;;
76131;SDS011;64877;50.994;13.650;2024-02-14T09:18:58;4.45;;;0.90;;
76131;SDS011;64877;50.994;13.650;2024-02-14T09:21:24;3.13;;;0.77;;
76131;SDS011;64877;50.994;13.650;2024-02-14T09:23:50;5.28;;;1.10;;
76131;SDS011;64877;50.994;13.650;2024-02-14T09:26:15;2.40;;;0.90;;
76131;SDS011;64877;50.994;13.650;2024-02-14T09:28:43;2.63;;;0.88;;
76131;SDS011;64877;50.994;13.650;2024-02-14T09:31:09;2.53;;;1.00;;
76131;SDS011;64877;50.994;13.650;2024-02-14T09:33:36;3.47;;;0.82;;
76131;SDS011;64877;50.994;13.650;2024-02-14T09:36:02;2.83;;;1.00;;
76131;SDS011;64877;50.994;13.650;2024-02-14T09:38:29;3.10;;;1.00;;
76131;SDS011;64877;50.994;13.650;2024-02-14T09:40:57;2.63;;;0.80;;
76131;SDS011;64877;50.994;13.650;2024-02-14T09:43:39;2.00;;;0.80;;
76131;SDS011;64877;50.994;13.650;2024-02-14T09:46:09;2.55;;;0.90;;
76131;SDS011;64877;50.994;13.650;2024-02-14T09:48:38;2.22;;;0.80;;
76131;SDS011;64877;50.994;13.650;2024-02-14T09:51:04;3.70;;;1.20;;
76131;SDS011;64877;50.994;13.650;2024-02-14T09:53:32;2.33;;;0.70;;
76131;SDS011;64877;50.994;13.650;2024-02-14T09:55:58;4.00;;;1.00;;
76131;SDS011;64877;50.994;13.650;2024-02-14T09:58:24;2.72;;;0.80;;
76131;SDS011;64877;50.994;13.650;2024-02-14T10:00:52;3.63;;;0.95;;
76131;SDS011;64877;50.994;13.650;2024-02-14T10:03:17;3.25;;;0.98;;
76131;SDS011;64877;50.994;13.650;2024-02-14T10:05:43;4.30;;;1.25;;
76131;SDS011;64877;50.994;13.650;2024-02-14T10:08:08;4.72;;;0.90;;
76131;SDS011;64877;50.994;13.650;2024-02-14T10:10:35;1.90;;;0.77;;
76131;SDS011;64877;50.994;13.650;2024-02-14T10:13:06;6.05;;;1.05;;
76131;SDS011;64877;50.994;13.650;2024-02-14T10:15:32;2.53;;;0.85;;
76131;SDS011;64877;50.994;13.650;2024-02-14T10:17:58;1.98;;;0.82;;
76131;SDS011;64877;50.994;13.650;2024-02-14T10:20:25;2.35;;;0.90;;
76131;SDS011;64877;50.994;13.650;2024-02-14T10:22:52;4.40;;;1.10;;
76131;SDS011;64877;50.994;13.650;2024-02-14T10:25:25;2.15;;;1.00;;
76131;SDS011;64877;50.994;13.650;2024-02-14T10:27:50;4.97;;;0.80;;
76131;SDS011;64877;50.994;13.650;2024-02-14T10:30:16;1.88;;;0.77;;
76131;SDS011;64877;50.994;13.650;2024-02-14T10:32:41;3.88;;;0.80;;
76131;SDS011;64877;50.994;13.650;2024-02-14T10:35:12;2.85;;;0.75;;
76131;SDS011;64877;50.994;13.650;2024-02-14T10:37:38;2.35;;;0.60;;
76131;SDS011;64877;50.994;13.650;2024-02-14T10:40:05;2.80;;;0.85;;
76131;SDS011;64877;50.994;13.650;2024-02-14T10:42:31;2.53;;;0.88;;
76131;SDS011;64877;50.994;13.650;2024-02-14T10:44:57;2.40;;;0.80;;
76131;SDS011;64877;50.994;13.650;2024-02-14T10:47:24;2.17;;;1.10;;
76131;SDS011;64877;50.994;13.650;2024-02-14T10:49:55;2.88;;;0.98;;
76131;SDS011;64877;50.994;13.650;2024-02-14T10:52:27;2.42;;;1.20;;
76131;SDS011;64877;50.994;13.650;2024-02-14T10:54:56;2.75;;;0.90;;
76131;SDS011;64877;50.994;13.650;2024-02-14T10:57:23;2.80;;;0.77;;
76131;SDS011;64877;50.994;13.650;2024-02-14T10:59:49;2.10;;;0.88;;
76131;SDS011;64877;50.994;13.650;2024-02-14T11:02:18;4.43;;;1.10;;
76131;SDS011;64877;50.994;13.650;2024-02-14T11:04:46;4.95;;;1.20;;
76131;SDS011;64877;50.994;13.650;2024-02-14T11:07:12;2.10;;;0.85;;
76131;SDS011;64877;50.994;13.650;2024-02-14T11:09:40;2.33;;;0.90;;
76131;SDS011;64877;50.994;13.650;2024-02-14T11:12:07;1.42;;;0.55;;
76131;SDS011;64877;50.994;13.650;2024-02-14T11:14:37;2.85;;;0.90;;
76131;SDS011;64877;50.994;13.650;2024-02-14T11:17:09;2.88;;;0.80;;
76131;SDS011;64877;50.994;13.650;2024-02-14T11:19:38;3.05;;;1.15;;
76131;SDS011;64877;50.994;13.650;2024-02-14T11:22:18;2.53;;;0.95;;
76131;SDS011;64877;50.994;13.650;2024-02-14T11:24:46;4.28;;;0.98;;
76131;SDS011;64877;50.994;13.650;2024-02-14T11:27:13;2.05;;;0.68;;
76131;SDS011;64877;50.994;13.650;2024-02-14T11:29:40;3.33;;;0.68;;
76131;SDS011;64877;50.994;13.650;2024-02-14T11:32:07;2.85;;;0.70;;
76131;SDS011;64877;50.994;13.650;2024-02-14T11:34:38;4.10;;;0.80;;
76131;SDS011;64877;50.994;13.650;2024-02-14T11:37:04;1.85;;;0.70;;
76131;SDS011;64877;50.994;13.650;2024-02-14T11:39:32;2.78;;;0.90;;
76131;SDS011;64877;50.994;13.650;2024-02-14T11:42:00;2.17;;;0.73;;
76131;SDS011;64877;50.994;13.650;2024-02-14T11:44:26;3.65;;;0.82;;
76131;SDS011;64877;50.994;13.650;2024-02-14T11:46:53;2.72;;;0.75;;
76131;SDS011;64877;50.994;13.650;2024-02-14T11:49:21;2.72;;;0.80;;
76131;SDS011;64877;50.994;13.650;2024-02-14T11:51:48;4.65;;;0.80;;
76131;SDS011;64877;50.994;13.650;2024-02-14T11:54:14;3.83;;;0.57;;
76131;SDS011;64877;50.994;13.650;2024-02-14T11:56:40;1.80;;;0.80;;
76131;SDS011;64877;50.994;13.650;2024-02-14T11:59:07;2.63;;;0.60;;
76131;SDS011;64877;50.994;13.650;2024-02-14T12:01:35;3.10;;;1.02;;
76131;SDS011;64877;50.994;13.650;2024-02-14T12:04:02;2.28;;;0.50;;
76131;SDS011;64877;50.994;13.650;2024-02-14T12:06:30;1.90;;;0.75;;
76131;SDS011;64877;50.994;13.650;2024-02-14T12:08:59;3.97;;;0.90;;
76131;SDS011;64877;50.994;13.650;2024-02-14T12:11:30;2.10;;;0.60;;
76131;SDS011;64877;50.994;13.650;2024-02-14T12:14:00;1.58;;;0.60;;
76131;SDS011;64877;50.994;13.650;2024-02-14T12:16:28;1.60;;;0.63;;
76131;SDS011;64877;50.994;13.650;2024-02-14T12:19:06;3.58;;;1.02;;
76131;SDS011;64877;50.994;13.650;2024-02-14T12:21:40;2.00;;;0.85;;
76131;SDS011;64877;50.994;13.650;2024-02-14T12:24:07;3.05;;;0.90;;
76131;SDS011;64877;50.994;13.650;2024-02-14T12:26:34;2.00;;;0.60;;
76131;SDS011;64877;50.994;13.650;2024-02-14T12:29:03;3.20;;;1.00;;
76131;SDS011;64877;50.994;13.650;2024-02-14T12:31:29;4.05;;;1.33;;
76131;SDS011;64877;50.994;13.650;2024-02-14T12:33:58;2.65;;;1.23;;
76131;SDS011;64877;50.994;13.650;2024-02-14T12:36:26;2.10;;;0.80;;
76131;SDS011;64877;50.994;13.650;2024-02-14T12:38:54;1.77;;;0.80;;
76131;SDS011;64877;50.994;13.650;2024-02-14T12:41:20;2.55;;;0.70;;
76131;SDS011;64877;50.994;13.650;2024-02-14T12:43:49;1.85;;;0.68;;
76131;SDS011;64877;50.994;13.650;2024-02-14T12:46:16;3.00;;;0.65;;
76131;SDS011;64877;50.994;13.650;2024-02-14T12:48:42;1.05;;;0.55;;
76131;SDS011;64877;50.994;13.650;2024-02-14T12:51:08;2.10;;;0.70;;
76131;SDS011;64877;50.994;13.650;2024-02-14T12:56:03;2.83;;;0.80;;
76131;SDS011;64877;50.994;13.650;2024-02-14T12:58:30;2.00;;;0.63;;
76131;SDS011;64877;50.994;13.650;2024-02-14T13:00:57;1.42;;;0.50;;
76131;SDS011;64877;50.994;13.650;2024-02-14T13:03:24;1.40;;;0.50;;
76131;SDS011;64877;50.994;13.650;2024-02-14T13:05:51;1.55;;;0.55;;
76131;SDS011;64877;50.994;13.650;2024-02-14T13:08:19;2.67;;;0.70;;
76131;SDS011;64877;50.994;13.650;2024-02-14T13:10:45;2.08;;;0.80;;
76131;SDS011;64877;50.994;13.650;2024-02-14T13:13:11;2.78;;;0.60;;
76131;SDS011;64877;50.994;13.650;2024-02-14T13:15:43;3.50;;;0.65;;
76131;SDS011;64877;50.994;13.650;2024-02-14T13:18:11;3.50;;;0.73;;
76131;SDS011;64877;50.994;13.650;2024-02-14T13:20:38;2.40;;;0.80;;
76131;SDS011;64877;50.994;13.650;2024-02-14T13:23:04;2.03;;;0.60;;
76131;SDS011;64877;50.994;13.650;2024-02-14T13:25:33;2.17;;;0.90;;
76131;SDS011;64877;50.994;13.650;2024-02-14T13:27:59;2.80;;;1.15;;
76131;SDS011;64877;50.994;13.650;2024-02-14T13:30:28;2.45;;;0.57;;
76131;SDS011;64877;50.994;13.650;2024-02-14T13:32:55;2.63;;;0.88;;
76131;SDS011;64877;50.994;13.650;2024-02-14T13:35:21;2.53;;;0.75;;
76131;SDS011;64877;50.994;13.650;2024-02-14T13:37:47;6.05;;;1.00;;
76131;SDS011;64877;50.994;13.650;2024-02-14T13:40:13;1.33;;;0.50;;
76131;SDS011;64877;50.994;13.650;2024-02-14T13:42:38;1.98;;;0.80;;
76131;SDS011;64877;50.994;13.650;2024-02-14T13:45:04;4.13;;;1.17;;
76131;SDS011;64877;50.994;13.650;2024-02-14T13:47:35;2.45;;;1.20;;
76131;SDS011;64877;50.994;13.650;2024-02-14T13:50:04;2.42;;;0.80;;
76131;SDS011;64877;50.994;13.650;2024-02-14T13:52:33;5.30;;;1.10;;
76131;SDS011;64877;50.994;13.650;2024-02-14T13:55:00;5.13;;;0.88;;
76131;SDS011;64877;50.994;13.650;2024-02-14T13:57:35;3.03;;;1.30;;
76131;SDS011;64877;50.994;13.650;2024-02-14T14:00:06;2.92;;;0.80;;
76131;SDS011;64877;50.994;13.650;2024-02-14T14:02:39;1.70;;;0.80;;
76131;SDS011;64877;50.994;13.650;2024-02-14T14:05:08;2.42;;;0.95;;
76131;SDS011;64877;50.994;13.650;2024-02-14T14:07:38;2.30;;;0.75;;
76131;SDS011;64877;50.994;13.650;2024-02-14T14:10:10;1.58;;;0.85;;
76131;SDS011;64877;50.994;13.650;2024-02-14T14:12:36;3.13;;;0.60;;
76131;SDS011;64877;50.994;13.650;2024-02-14T14:15:04;3.17;;;1.17;;
76131;SDS011;64877;50.994;13.650;2024-02-14T14:17:30;2.88;;;1.08;;
76131;SDS011;64877;50.994;13.650;2024-02-14T14:19:55;2.22;;;0.77;;
76131;SDS011;64877;50.994;13.650;2024-02-14T14:22:21;2.20;;;0.85;;
76131;SDS011;64877;50.994;13.650;2024-02-14T14:24:46;2.85;;;1.00;;
76131;SDS011;64877;50.994;13.650;2024-02-14T14:27:12;2.50;;;0.80;;
76131;SDS011;64877;50.994;13.650;2024-02-14T14:29:42;3.28;;;1.02;;
76131;SDS011;64877;50.994;13.650;2024-02-14T14:32:08;1.63;;;0.80;;